sensor_id;sensor_type;location;lat;lon;timestamp;temperature;humidity
24636;DHT22;12772;49.794;10.024;2023-11-21T00:01:36;11.70;66.60
24636;DHT22;12772;49.794;10.024;2023-11-21T00:05:38;11.70;66.90
24636;DHT22;12772;49.794;10.024;2023-11-21T00:09:42;11.70;67.30
24636;DHT22;12772;49.794;10.024;2023-11-21T00:13:44;11.60;67.90
24636;DHT22;12772;49.794;10.024;2023-11-21T00:17:46;11.60;67.90
24636;DHT22;12772;49.794;10.024;2023-11-21T00:21:48;11.50;68.50
24636;DHT22;12772;49.794;10.024;2023-11-21T00:25:51;11.50;68.90
24636;DHT22;12772;49.794;10.024;2023-11-21T00:29:53;11.50;69.30
24636;DHT22;12772;49.794;10.024;2023-11-21T00:33:55;11.60;69.50
24636;DHT22;12772;49.794;10.024;2023-11-21T00:37:57;11.60;69.50
24636;DHT22;12772;49.794;10.024;2023-11-21T00:41:59;11.60;69.30
24636;DHT22;12772;49.794;10.024;2023-11-21T00:46:04;11.70;69.10
24636;DHT22;12772;49.794;10.024;2023-11-21T00:50:08;11.60;68.90
24636;DHT22;12772;49.794;10.024;2023-11-21T00:54:10;11.60;69.00
24636;DHT22;12772;49.794;10.024;2023-11-21T00:58:12;11.60;69.10
24636;DHT22;12772;49.794;10.024;2023-11-21T01:02:14;11.60;69.30
24636;DHT22;12772;49.794;10.024;2023-11-21T01:06:16;11.60;69.20
24636;DHT22;12772;49.794;10.024;2023-11-21T01:10:18;11.60;69.10
24636;DHT22;12772;49.794;10.024;2023-11-21T01:14:21;11.60;68.70
24636;DHT22;12772;49.794;10.024;2023-11-21T01:18:23;11.60;68.90
24636;DHT22;12772;49.794;10.024;2023-11-21T01:22:26;11.70;69.00
24636;DHT22;12772;49.794;10.024;2023-11-21T01:26:29;11.70;69.00
24636;DHT22;12772;49.794;10.024;2023-11-21T01:30:31;11.70;68.90
24636;DHT22;12772;49.794;10.024;2023-11-21T01:34:33;11.80;68.60
24636;DHT22;12772;49.794;10.024;2023-11-21T01:38:35;11.80;68.30
24636;DHT22;12772;49.794;10.024;2023-11-21T01:42:37;11.80;68.10
24636;DHT22;12772;49.794;10.024;2023-11-21T01:46:40;11.80;68.10
24636;DHT22;12772;49.794;10.024;2023-11-21T01:50:42;11.70;68.00
24636;DHT22;12772;49.794;10.024;2023-11-21T01:54:45;11.70;68.00
24636;DHT22;12772;49.794;10.024;2023-11-21T01:58:48;11.80;68.10
24636;DHT22;12772;49.794;10.024;2023-11-21T02:02:51;11.80;68.10
24636;DHT22;12772;49.794;10.024;2023-11-21T02:06:53;11.80;68.10
24636;DHT22;12772;49.794;10.024;2023-11-21T02:10:55;11.80;68.50
24636;DHT22;12772;49.794;10.024;2023-11-21T02:14:58;11.80;68.50
24636;DHT22;12772;49.794;10.024;2023-11-21T02:19:01;11.80;68.10
24636;DHT22;12772;49.794;10.024;2023-11-21T02:23:04;11.90;68.20
24636;DHT22;12772;49.794;10.024;2023-11-21T02:27:06;11.90;68.20
24636;DHT22;12772;49.794;10.024;2023-11-21T02:31:08;11.90;68.20
24636;DHT22;12772;49.794;10.024;2023-11-21T02:35:10;12.00;68.10
24636;DHT22;12772;49.794;10.024;2023-11-21T02:39:13;12.00;67.60
24636;DHT22;12772;49.794;10.024;2023-11-21T02:43:15;12.00;67.20
24636;DHT22;12772;49.794;10.024;2023-11-21T02:47:17;12.00;67.00
24636;DHT22;12772;49.794;10.024;2023-11-21T02:51:19;12.00;66.80
24636;DHT22;12772;49.794;10.024;2023-11-21T02:55:21;12.00;66.80
24636;DHT22;12772;49.794;10.024;2023-11-21T02:59:25;12.00;66.60
24636;DHT22;12772;49.794;10.024;2023-11-21T03:03:27;12.00;66.50
24636;DHT22;12772;49.794;10.024;2023-11-21T03:07:30;12.00;66.50
24636;DHT22;12772;49.794;10.024;2023-11-21T03:11:32;12.10;66.50
24636;DHT22;12772;49.794;10.024;2023-11-21T03:15:34;12.10;66.60
24636;DHT22;12772;49.794;10.024;2023-11-21T03:19:36;12.10;66.50
24636;DHT22;12772;49.794;10.024;2023-11-21T03:23:38;12.10;66.30
24636;DHT22;12772;49.794;10.024;2023-11-21T03:27:40;12.00;66.10
24636;DHT22;12772;49.794;10.024;2023-11-21T03:31:42;12.00;66.30
24636;DHT22;12772;49.794;10.024;2023-11-21T03:35:44;11.90;66.40
24636;DHT22;12772;49.794;10.024;2023-11-21T03:39:46;11.90;66.50
24636;DHT22;12772;49.794;10.024;2023-11-21T03:43:48;11.90;66.60
24636;DHT22;12772;49.794;10.024;2023-11-21T03:47:50;11.90;66.70
24636;DHT22;12772;49.794;10.024;2023-11-21T03:51:52;11.90;66.80
24636;DHT22;12772;49.794;10.024;2023-11-21T03:55:54;11.90;66.80
24636;DHT22;12772;49.794;10.024;2023-11-21T03:59:56;11.90;66.70
24636;DHT22;12772;49.794;10.024;2023-11-21T04:03:58;11.90;66.70
24636;DHT22;12772;49.794;10.024;2023-11-21T04:08:00;12.00;66.70
24636;DHT22;12772;49.794;10.024;2023-11-21T04:12:02;12.00;66.60
24636;DHT22;12772;49.794;10.024;2023-11-21T04:16:06;12.00;66.60
24636;DHT22;12772;49.794;10.024;2023-11-21T04:20:09;12.00;66.50
24636;DHT22;12772;49.794;10.024;2023-11-21T04:24:11;12.00;66.50
24636;DHT22;12772;49.794;10.024;2023-11-21T04:28:13;12.00;66.40
24636;DHT22;12772;49.794;10.024;2023-11-21T04:32:15;12.00;66.40
24636;DHT22;12772;49.794;10.024;2023-11-21T04:36:17;12.00;66.30
24636;DHT22;12772;49.794;10.024;2023-11-21T04:40:19;12.10;66.30
24636;DHT22;12772;49.794;10.024;2023-11-21T04:44:22;12.10;66.20
24636;DHT22;12772;49.794;10.024;2023-11-21T04:48:24;12.10;66.20
24636;DHT22;12772;49.794;10.024;2023-11-21T04:52:26;12.10;66.20
24636;DHT22;12772;49.794;10.024;2023-11-21T04:56:28;12.00;66.20
24636;DHT22;12772;49.794;10.024;2023-11-21T05:00:30;12.00;66.20
24636;DHT22;12772;49.794;10.024;2023-11-21T05:04:32;12.10;66.20
24636;DHT22;12772;49.794;10.024;2023-11-21T05:08:34;12.00;66.10
24636;DHT22;12772;49.794;10.024;2023-11-21T05:12:39;12.10;66.20
24636;DHT22;12772;49.794;10.024;2023-11-21T05:16:41;12.00;66.10
24636;DHT22;12772;49.794;10.024;2023-11-21T05:20:43;12.10;66.10
24636;DHT22;12772;49.794;10.024;2023-11-21T05:24:45;12.00;66.00
24636;DHT22;12772;49.794;10.024;2023-11-21T05:28:47;12.00;65.90
24636;DHT22;12772;49.794;10.024;2023-11-21T05:32:49;12.00;65.80
24636;DHT22;12772;49.794;10.024;2023-11-21T05:36:51;12.00;65.80
24636;DHT22;12772;49.794;10.024;2023-11-21T05:40:54;12.00;65.80
24636;DHT22;12772;49.794;10.024;2023-11-21T05:44:56;12.00;65.90
24636;DHT22;12772;49.794;10.024;2023-11-21T05:49:00;12.00;65.80
24636;DHT22;12772;49.794;10.024;2023-11-21T05:53:01;12.00;66.00
24636;DHT22;12772;49.794;10.024;2023-11-21T05:57:04;12.00;66.00
24636;DHT22;12772;49.794;10.024;2023-11-21T06:01:06;12.00;66.00
24636;DHT22;12772;49.794;10.024;2023-11-21T06:05:10;12.00;65.90
24636;DHT22;12772;49.794;10.024;2023-11-21T06:09:12;12.00;65.90
24636;DHT22;12772;49.794;10.024;2023-11-21T06:13:14;12.00;66.10
24636;DHT22;12772;49.794;10.024;2023-11-21T06:17:16;11.90;66.00
24636;DHT22;12772;49.794;10.024;2023-11-21T06:21:18;11.90;66.10
24636;DHT22;12772;49.794;10.024;2023-11-21T06:25:20;11.80;66.10
24636;DHT22;12772;49.794;10.024;2023-11-21T06:29:22;11.90;66.20
24636;DHT22;12772;49.794;10.024;2023-11-21T06:33:24;11.90;66.30
24636;DHT22;12772;49.794;10.024;2023-11-21T06:37:29;11.80;66.20
24636;DHT22;12772;49.794;10.024;2023-11-21T06:41:31;11.90;66.30
24636;DHT22;12772;49.794;10.024;2023-11-21T06:45:34;11.80;66.40
24636;DHT22;12772;49.794;10.024;2023-11-21T06:49:36;11.80;66.50
24636;DHT22;12772;49.794;10.024;2023-11-21T06:53:39;11.80;66.60
24636;DHT22;12772;49.794;10.024;2023-11-21T06:57:41;11.80;66.60
24636;DHT22;12772;49.794;10.024;2023-11-21T07:01:44;11.80;66.50
24636;DHT22;12772;49.794;10.024;2023-11-21T07:05:46;11.80;66.60
24636;DHT22;12772;49.794;10.024;2023-11-21T07:09:48;11.80;66.50
24636;DHT22;12772;49.794;10.024;2023-11-21T07:13:50;11.80;66.60
24636;DHT22;12772;49.794;10.024;2023-11-21T07:17:52;11.70;66.50
24636;DHT22;12772;49.794;10.024;2023-11-21T07:21:54;11.70;66.50
24636;DHT22;12772;49.794;10.024;2023-11-21T07:25:56;11.70;66.70
24636;DHT22;12772;49.794;10.024;2023-11-21T07:29:58;11.70;67.10
24636;DHT22;12772;49.794;10.024;2023-11-21T07:34:01;11.60;67.20
24636;DHT22;12772;49.794;10.024;2023-11-21T07:38:02;11.70;67.50
24636;DHT22;12772;49.794;10.024;2023-11-21T07:42:05;11.70;67.70
24636;DHT22;12772;49.794;10.024;2023-11-21T07:46:07;11.70;67.80
24636;DHT22;12772;49.794;10.024;2023-11-21T07:50:09;11.70;67.60
24636;DHT22;12772;49.794;10.024;2023-11-21T07:54:11;11.50;67.60
24636;DHT22;12772;49.794;10.024;2023-11-21T07:58:13;11.80;68.00
24636;DHT22;12772;49.794;10.024;2023-11-21T08:02:15;11.80;67.90
24636;DHT22;12772;49.794;10.024;2023-11-21T08:06:18;11.80;67.80
24636;DHT22;12772;49.794;10.024;2023-11-21T08:10:20;11.80;68.10
24636;DHT22;12772;49.794;10.024;2023-11-21T08:14:23;11.80;68.10
24636;DHT22;12772;49.794;10.024;2023-11-21T08:18:26;11.70;68.00
24636;DHT22;12772;49.794;10.024;2023-11-21T08:22:28;11.80;68.10
24636;DHT22;12772;49.794;10.024;2023-11-21T08:26:30;11.80;68.10
24636;DHT22;12772;49.794;10.024;2023-11-21T08:30:32;11.90;68.20
24636;DHT22;12772;49.794;10.024;2023-11-21T08:34:35;11.90;68.20
24636;DHT22;12772;49.794;10.024;2023-11-21T08:38:38;11.80;68.10
24636;DHT22;12772;49.794;10.024;2023-11-21T08:42:42;11.80;68.10
24636;DHT22;12772;49.794;10.024;2023-11-21T08:46:46;11.80;68.40
24636;DHT22;12772;49.794;10.024;2023-11-21T08:50:48;11.80;68.60
24636;DHT22;12772;49.794;10.024;2023-11-21T08:54:51;11.80;69.00
24636;DHT22;12772;49.794;10.024;2023-11-21T08:58:56;11.70;69.40
24636;DHT22;12772;49.794;10.024;2023-11-21T09:02:58;11.80;69.60
24636;DHT22;12772;49.794;10.024;2023-11-21T09:07:00;11.80;69.70
24636;DHT22;12772;49.794;10.024;2023-11-21T09:11:02;11.80;69.80
24636;DHT22;12772;49.794;10.024;2023-11-21T09:15:06;11.90;69.90
24636;DHT22;12772;49.794;10.024;2023-11-21T09:19:08;11.90;70.00
24636;DHT22;12772;49.794;10.024;2023-11-21T09:23:10;12.00;69.90
24636;DHT22;12772;49.794;10.024;2023-11-21T09:27:13;11.90;69.90
24636;DHT22;12772;49.794;10.024;2023-11-21T09:31:16;11.90;70.10
24636;DHT22;12772;49.794;10.024;2023-11-21T09:35:18;12.00;70.30
24636;DHT22;12772;49.794;10.024;2023-11-21T09:39:20;12.00;70.30
24636;DHT22;12772;49.794;10.024;2023-11-21T09:43:22;12.10;70.20
24636;DHT22;12772;49.794;10.024;2023-11-21T09:47:24;12.10;70.10
24636;DHT22;12772;49.794;10.024;2023-11-21T09:51:27;12.20;70.10
24636;DHT22;12772;49.794;10.024;2023-11-21T09:55:34;12.20;70.00
24636;DHT22;12772;49.794;10.024;2023-11-21T09:59:37;12.20;70.00
24636;DHT22;12772;49.794;10.024;2023-11-21T10:03:39;12.20;69.90
24636;DHT22;12772;49.794;10.024;2023-11-21T10:07:43;12.30;69.90
24636;DHT22;12772;49.794;10.024;2023-11-21T10:11:49;12.30;69.70
24636;DHT22;12772;49.794;10.024;2023-11-21T10:15:52;12.30;69.50
24636;DHT22;12772;49.794;10.024;2023-11-21T10:19:54;12.40;68.50
24636;DHT22;12772;49.794;10.024;2023-11-21T10:23:56;12.40;68.50
24636;DHT22;12772;49.794;10.024;2023-11-21T10:28:01;12.40;68.60
24636;DHT22;12772;49.794;10.024;2023-11-21T10:32:05;12.50;68.60
24636;DHT22;12772;49.794;10.024;2023-11-21T10:36:08;12.50;68.60
24636;DHT22;12772;49.794;10.024;2023-11-21T10:40:11;12.50;68.60
24636;DHT22;12772;49.794;10.024;2023-11-21T10:44:17;12.60;68.70
24636;DHT22;12772;49.794;10.024;2023-11-21T10:48:21;12.60;68.30
24636;DHT22;12772;49.794;10.024;2023-11-21T10:52:26;12.60;68.00
24636;DHT22;12772;49.794;10.024;2023-11-21T10:56:29;12.60;67.80
24636;DHT22;12772;49.794;10.024;2023-11-21T11:00:32;12.70;67.50
24636;DHT22;12772;49.794;10.024;2023-11-21T11:04:34;12.70;66.80
24636;DHT22;12772;49.794;10.024;2023-11-21T11:08:39;12.70;66.70
24636;DHT22;12772;49.794;10.024;2023-11-21T11:12:41;12.70;66.80
24636;DHT22;12772;49.794;10.024;2023-11-21T11:16:43;12.70;66.90
24636;DHT22;12772;49.794;10.024;2023-11-21T11:20:46;12.70;66.60
24636;DHT22;12772;49.794;10.024;2023-11-21T11:29:18;12.80;66.50
24636;DHT22;12772;49.794;10.024;2023-11-21T11:33:38;12.80;66.40
24636;DHT22;12772;49.794;10.024;2023-11-21T11:37:43;12.90;66.20
24636;DHT22;12772;49.794;10.024;2023-11-21T11:41:46;12.90;66.10
24636;DHT22;12772;49.794;10.024;2023-11-21T11:45:48;12.90;65.70
24636;DHT22;12772;49.794;10.024;2023-11-21T11:50:00;13.00;65.90
24636;DHT22;12772;49.794;10.024;2023-11-21T11:54:05;13.10;65.60
24636;DHT22;12772;49.794;10.024;2023-11-21T11:58:08;13.10;65.40
24636;DHT22;12772;49.794;10.024;2023-11-21T12:02:10;13.10;65.40
24636;DHT22;12772;49.794;10.024;2023-11-21T12:06:13;13.20;65.20
24636;DHT22;12772;49.794;10.024;2023-11-21T12:10:17;13.30;64.90
24636;DHT22;12772;49.794;10.024;2023-11-21T12:14:19;13.20;64.60
24636;DHT22;12772;49.794;10.024;2023-11-21T12:18:21;13.20;65.10
24636;DHT22;12772;49.794;10.024;2023-11-21T12:22:25;13.20;64.50
24636;DHT22;12772;49.794;10.024;2023-11-21T12:26:27;13.20;64.30
24636;DHT22;12772;49.794;10.024;2023-11-21T12:30:30;13.30;63.90
24636;DHT22;12772;49.794;10.024;2023-11-21T12:34:32;13.20;64.20
24636;DHT22;12772;49.794;10.024;2023-11-21T12:38:34;13.30;64.00
24636;DHT22;12772;49.794;10.024;2023-11-21T12:42:37;13.40;63.80
24636;DHT22;12772;49.794;10.024;2023-11-21T12:46:42;13.60;63.50
24636;DHT22;12772;49.794;10.024;2023-11-21T12:50:45;13.70;62.40
24636;DHT22;12772;49.794;10.024;2023-11-21T12:54:49;13.80;60.90
24636;DHT22;12772;49.794;10.024;2023-11-21T12:58:54;13.80;60.90
24636;DHT22;12772;49.794;10.024;2023-11-21T13:02:58;13.80;58.80
24636;DHT22;12772;49.794;10.024;2023-11-21T13:07:04;13.90;58.70
24636;DHT22;12772;49.794;10.024;2023-11-21T13:11:11;13.90;58.70
24636;DHT22;12772;49.794;10.024;2023-11-21T13:15:15;14.00;59.10
24636;DHT22;12772;49.794;10.024;2023-11-21T13:19:18;14.10;58.40
24636;DHT22;12772;49.794;10.024;2023-11-21T13:23:22;14.10;58.10
24636;DHT22;12772;49.794;10.024;2023-11-21T13:27:24;14.20;57.00
24636;DHT22;12772;49.794;10.024;2023-11-21T13:31:27;14.20;56.00
24636;DHT22;12772;49.794;10.024;2023-11-21T13:35:35;14.10;56.10
24636;DHT22;12772;49.794;10.024;2023-11-21T13:39:38;14.00;56.60
24636;DHT22;12772;49.794;10.024;2023-11-21T13:43:45;14.00;56.80
24636;DHT22;12772;49.794;10.024;2023-11-21T13:47:54;14.00;56.90
24636;DHT22;12772;49.794;10.024;2023-11-21T13:51:58;14.00;56.80
24636;DHT22;12772;49.794;10.024;2023-11-21T13:56:01;14.00;56.60
24636;DHT22;12772;49.794;10.024;2023-11-21T14:00:04;13.90;56.70
24636;DHT22;12772;49.794;10.024;2023-11-21T14:04:11;13.90;56.90
24636;DHT22;12772;49.794;10.024;2023-11-21T14:08:23;13.80;57.10
24636;DHT22;12772;49.794;10.024;2023-11-21T14:12:29;13.80;57.10
24636;DHT22;12772;49.794;10.024;2023-11-21T14:16:34;13.80;57.20
24636;DHT22;12772;49.794;10.024;2023-11-21T14:20:37;13.80;57.10
24636;DHT22;12772;49.794;10.024;2023-11-21T14:24:40;13.70;57.30
24636;DHT22;12772;49.794;10.024;2023-11-21T14:28:44;13.60;57.70
24636;DHT22;12772;49.794;10.024;2023-11-21T14:32:49;13.60;57.80
24636;DHT22;12772;49.794;10.024;2023-11-21T14:36:51;13.50;58.00
24636;DHT22;12772;49.794;10.024;2023-11-21T14:40:53;13.40;57.80
24636;DHT22;12772;49.794;10.024;2023-11-21T14:44:56;13.40;58.90
24636;DHT22;12772;49.794;10.024;2023-11-21T14:49:01;13.40;58.70
24636;DHT22;12772;49.794;10.024;2023-11-21T14:53:19;13.30;58.70
24636;DHT22;12772;49.794;10.024;2023-11-21T14:57:43;13.20;58.90
24636;DHT22;12772;49.794;10.024;2023-11-21T15:01:49;13.20;59.90
24636;DHT22;12772;49.794;10.024;2023-11-21T15:05:56;13.10;59.50
24636;DHT22;12772;49.794;10.024;2023-11-21T15:09:58;13.10;59.30
24636;DHT22;12772;49.794;10.024;2023-11-21T15:14:00;13.10;59.30
24636;DHT22;12772;49.794;10.024;2023-11-21T15:18:07;13.00;59.10
24636;DHT22;12772;49.794;10.024;2023-11-21T15:22:12;12.90;59.20
24636;DHT22;12772;49.794;10.024;2023-11-21T15:26:16;12.90;59.60
24636;DHT22;12772;49.794;10.024;2023-11-21T15:30:18;12.80;59.80
24636;DHT22;12772;49.794;10.024;2023-11-21T15:34:25;12.80;60.10
24636;DHT22;12772;49.794;10.024;2023-11-21T15:38:29;12.80;60.50
24636;DHT22;12772;49.794;10.024;2023-11-21T15:42:31;12.80;60.10
24636;DHT22;12772;49.794;10.024;2023-11-21T15:46:34;12.70;60.00
24636;DHT22;12772;49.794;10.024;2023-11-21T15:50:38;12.70;60.00
24636;DHT22;12772;49.794;10.024;2023-11-21T15:54:40;12.70;60.00
24636;DHT22;12772;49.794;10.024;2023-11-21T15:58:42;12.70;60.00
24636;DHT22;12772;49.794;10.024;2023-11-21T16:02:44;12.70;60.00
24636;DHT22;12772;49.794;10.024;2023-11-21T16:06:46;12.70;60.00
24636;DHT22;12772;49.794;10.024;2023-11-21T16:10:48;12.60;59.90
24636;DHT22;12772;49.794;10.024;2023-11-21T16:14:50;12.60;59.90
24636;DHT22;12772;49.794;10.024;2023-11-21T16:18:52;12.60;60.00
24636;DHT22;12772;49.794;10.024;2023-11-21T16:22:54;12.50;59.80
24636;DHT22;12772;49.794;10.024;2023-11-21T16:26:56;12.50;59.80
24636;DHT22;12772;49.794;10.024;2023-11-21T16:30:59;12.40;60.00
24636;DHT22;12772;49.794;10.024;2023-11-21T16:35:02;12.40;60.00
24636;DHT22;12772;49.794;10.024;2023-11-21T16:39:04;12.40;60.20
24636;DHT22;12772;49.794;10.024;2023-11-21T16:43:07;12.40;60.00
24636;DHT22;12772;49.794;10.024;2023-11-21T16:47:09;12.40;60.30
24636;DHT22;12772;49.794;10.024;2023-11-21T16:51:11;12.40;60.30
24636;DHT22;12772;49.794;10.024;2023-11-21T16:55:13;12.30;60.10
24636;DHT22;12772;49.794;10.024;2023-11-21T16:59:16;12.30;60.30
24636;DHT22;12772;49.794;10.024;2023-11-21T17:03:19;12.30;60.30
24636;DHT22;12772;49.794;10.024;2023-11-21T17:07:21;12.30;60.50
24636;DHT22;12772;49.794;10.024;2023-11-21T17:11:23;12.30;60.30
24636;DHT22;12772;49.794;10.024;2023-11-21T17:15:25;12.30;60.10
24636;DHT22;12772;49.794;10.024;2023-11-21T17:19:27;12.30;60.20
24636;DHT22;12772;49.794;10.024;2023-11-21T17:23:33;12.30;60.00
24636;DHT22;12772;49.794;10.024;2023-11-21T17:27:35;12.30;60.10
24636;DHT22;12772;49.794;10.024;2023-11-21T17:31:38;12.30;59.60
24636;DHT22;12772;49.794;10.024;2023-11-21T17:35:40;12.30;59.60
24636;DHT22;12772;49.794;10.024;2023-11-21T17:39:47;12.30;59.60
24636;DHT22;12772;49.794;10.024;2023-11-21T17:43:49;12.30;59.60
24636;DHT22;12772;49.794;10.024;2023-11-21T17:47:51;12.30;59.50
24636;DHT22;12772;49.794;10.024;2023-11-21T17:51:53;12.30;59.50
24636;DHT22;12772;49.794;10.024;2023-11-21T17:55:55;12.30;59.60
24636;DHT22;12772;49.794;10.024;2023-11-21T17:59:57;12.30;59.60
24636;DHT22;12772;49.794;10.024;2023-11-21T18:04:00;12.30;59.80
24636;DHT22;12772;49.794;10.024;2023-11-21T18:08:02;12.20;60.00
24636;DHT22;12772;49.794;10.024;2023-11-21T18:12:05;12.20;60.30
24636;DHT22;12772;49.794;10.024;2023-11-21T18:16:07;12.20;60.50
24636;DHT22;12772;49.794;10.024;2023-11-21T18:20:10;12.20;60.40
24636;DHT22;12772;49.794;10.024;2023-11-21T18:24:12;12.20;60.30
24636;DHT22;12772;49.794;10.024;2023-11-21T18:28:14;12.20;60.40
24636;DHT22;12772;49.794;10.024;2023-11-21T18:32:16;12.20;60.40
24636;DHT22;12772;49.794;10.024;2023-11-21T18:36:20;12.20;60.40
24636;DHT22;12772;49.794;10.024;2023-11-21T18:40:22;12.20;60.60
24636;DHT22;12772;49.794;10.024;2023-11-21T18:44:24;12.20;60.70
24636;DHT22;12772;49.794;10.024;2023-11-21T18:48:26;12.10;61.30
24636;DHT22;12772;49.794;10.024;2023-11-21T18:52:28;12.00;61.20
24636;DHT22;12772;49.794;10.024;2023-11-21T18:56:30;11.90;61.60
24636;DHT22;12772;49.794;10.024;2023-11-21T19:00:32;11.90;62.10
24636;DHT22;12772;49.794;10.024;2023-11-21T19:04:34;11.70;62.70
24636;DHT22;12772;49.794;10.024;2023-11-21T19:08:36;11.70;63.50
24636;DHT22;12772;49.794;10.024;2023-11-21T19:12:38;11.60;64.10
24636;DHT22;12772;49.794;10.024;2023-11-21T19:16:40;11.60;64.60
24636;DHT22;12772;49.794;10.024;2023-11-21T19:20:42;11.60;65.30
24636;DHT22;12772;49.794;10.024;2023-11-21T19:24:44;11.10;64.50
24636;DHT22;12772;49.794;10.024;2023-11-21T19:28:46;11.30;63.50
24636;DHT22;12772;49.794;10.024;2023-11-21T19:32:48;11.20;63.10
24636;DHT22;12772;49.794;10.024;2023-11-21T19:36:50;11.00;62.90
24636;DHT22;12772;49.794;10.024;2023-11-21T19:40:52;11.00;62.60
24636;DHT22;12772;49.794;10.024;2023-11-21T19:44:55;10.80;62.30
24636;DHT22;12772;49.794;10.024;2023-11-21T19:48:57;10.70;62.00
24636;DHT22;12772;49.794;10.024;2023-11-21T19:52:59;10.60;61.90
24636;DHT22;12772;49.794;10.024;2023-11-21T19:57:01;10.40;61.40
24636;DHT22;12772;49.794;10.024;2023-11-21T20:01:06;10.30;61.50
24636;DHT22;12772;49.794;10.024;2023-11-21T20:05:08;10.30;61.40
24636;DHT22;12772;49.794;10.024;2023-11-21T20:09:10;10.20;61.70
24636;DHT22;12772;49.794;10.024;2023-11-21T20:13:13;10.10;61.40
24636;DHT22;12772;49.794;10.024;2023-11-21T20:17:15;10.30;61.40
24636;DHT22;12772;49.794;10.024;2023-11-21T20:21:21;10.00;60.10
24636;DHT22;12772;49.794;10.024;2023-11-21T20:25:23;9.90;60.80
24636;DHT22;12772;49.794;10.024;2023-11-21T20:29:31;9.80;60.90
24636;DHT22;12772;49.794;10.024;2023-11-21T20:33:34;9.70;60.50
24636;DHT22;12772;49.794;10.024;2023-11-21T20:37:36;9.50;60.80
24636;DHT22;12772;49.794;10.024;2023-11-21T20:41:39;9.30;60.90
24636;DHT22;12772;49.794;10.024;2023-11-21T20:45:42;9.00;60.50
24636;DHT22;12772;49.794;10.024;2023-11-21T20:49:44;8.90;60.50
24636;DHT22;12772;49.794;10.024;2023-11-21T20:53:45;8.90;60.90
24636;DHT22;12772;49.794;10.024;2023-11-21T20:57:48;9.30;61.00
24636;DHT22;12772;49.794;10.024;2023-11-21T21:01:50;9.00;60.80
24636;DHT22;12772;49.794;10.024;2023-11-21T21:05:52;9.30;61.00
24636;DHT22;12772;49.794;10.024;2023-11-21T21:09:54;8.80;60.70
24636;DHT22;12772;49.794;10.024;2023-11-21T21:13:56;9.10;60.90
24636;DHT22;12772;49.794;10.024;2023-11-21T21:17:58;9.20;60.90
24636;DHT22;12772;49.794;10.024;2023-11-21T21:22:01;8.70;60.50
24636;DHT22;12772;49.794;10.024;2023-11-21T21:26:03;8.60;60.30
24636;DHT22;12772;49.794;10.024;2023-11-21T21:30:09;8.70;60.20
24636;DHT22;12772;49.794;10.024;2023-11-21T21:34:11;9.00;60.20
24636;DHT22;12772;49.794;10.024;2023-11-21T21:38:15;8.90;60.10
24636;DHT22;12772;49.794;10.024;2023-11-21T21:42:17;8.40;59.90
24636;DHT22;12772;49.794;10.024;2023-11-21T21:46:19;8.80;60.30
24636;DHT22;12772;49.794;10.024;2023-11-21T21:50:21;8.80;59.20
24636;DHT22;12772;49.794;10.024;2023-11-21T21:54:25;8.60;58.20
24636;DHT22;12772;49.794;10.024;2023-11-21T21:58:28;8.40;56.50
24636;DHT22;12772;49.794;10.024;2023-11-21T22:02:30;8.60;56.70
24636;DHT22;12772;49.794;10.024;2023-11-21T22:06:32;8.80;56.00
24636;DHT22;12772;49.794;10.024;2023-11-21T22:10:35;8.30;54.60
24636;DHT22;12772;49.794;10.024;2023-11-21T22:14:37;8.30;54.50
24636;DHT22;12772;49.794;10.024;2023-11-21T22:18:39;8.50;54.60
24636;DHT22;12772;49.794;10.024;2023-11-21T22:22:41;8.70;54.30
24636;DHT22;12772;49.794;10.024;2023-11-21T22:26:43;8.70;54.20
24636;DHT22;12772;49.794;10.024;2023-11-21T22:30:45;8.40;52.20
24636;DHT22;12772;49.794;10.024;2023-11-21T22:34:47;8.50;52.80
24636;DHT22;12772;49.794;10.024;2023-11-21T22:38:50;8.60;53.40
24636;DHT22;12772;49.794;10.024;2023-11-21T22:42:52;8.10;52.90
24636;DHT22;12772;49.794;10.024;2023-11-21T22:46:54;8.70;53.40
24636;DHT22;12772;49.794;10.024;2023-11-21T22:51:00;8.50;53.00
24636;DHT22;12772;49.794;10.024;2023-11-21T22:55:02;8.30;52.40
24636;DHT22;12772;49.794;10.024;2023-11-21T22:59:05;8.50;52.70
24636;DHT22;12772;49.794;10.024;2023-11-21T23:03:07;8.00;52.10
24636;DHT22;12772;49.794;10.024;2023-11-21T23:07:09;8.20;52.60
24636;DHT22;12772;49.794;10.024;2023-11-21T23:11:12;8.50;52.60
24636;DHT22;12772;49.794;10.024;2023-11-21T23:15:15;8.50;52.10
24636;DHT22;12772;49.794;10.024;2023-11-21T23:19:17;8.20;51.40
24636;DHT22;12772;49.794;10.024;2023-11-21T23:23:20;7.90;51.80
24636;DHT22;12772;49.794;10.024;2023-11-21T23:27:24;8.30;52.60
24636;DHT22;12772;49.794;10.024;2023-11-21T23:31:26;8.30;52.90
24636;DHT22;12772;49.794;10.024;2023-11-21T23:35:28;8.30;52.70
24636;DHT22;12772;49.794;10.024;2023-11-21T23:39:31;8.40;52.80
24636;DHT22;12772;49.794;10.024;2023-11-21T23:43:33;8.00;52.60
24636;DHT22;12772;49.794;10.024;2023-11-21T23:47:35;8.00;52.70
24636;DHT22;12772;49.794;10.024;2023-11-21T23:51:37;7.90;52.50
24636;DHT22;12772;49.794;10.024;2023-11-21T23:55:39;8.20;53.30
24636;DHT22;12772;49.794;10.024;2023-11-21T23:59:41;7.80;52.90
